sensor_id;sensor_type;location;lat;lon;timestamp;temperature;humidity
21612;DHT22;47005;52.292;13.452;2022-07-06T00:01:50;19.30;71.10
21612;DHT22;47005;52.292;13.452;2022-07-06T00:04:17;19.30;71.40
21612;DHT22;47005;52.292;13.452;2022-07-06T00:06:43;19.30;71.40
21612;DHT22;47005;52.292;13.452;2022-07-06T00:09:08;19.30;71.50
21612;DHT22;47005;52.292;13.452;2022-07-06T00:11:34;19.30;71.70
21612;DHT22;47005;52.292;13.452;2022-07-06T00:14:00;19.20;71.80
21612;DHT22;47005;52.292;13.452;2022-07-06T00:16:25;19.20;71.90
21612;DHT22;47005;52.292;13.452;2022-07-06T00:18:51;19.20;72.20
21612;DHT22;47005;52.292;13.452;2022-07-06T00:21:17;19.20;72.30
21612;DHT22;47005;52.292;13.452;2022-07-06T00:23:43;19.20;72.30
21612;DHT22;47005;52.292;13.452;2022-07-06T00:26:09;19.20;72.60
21612;DHT22;47005;52.292;13.452;2022-07-06T00:28:36;19.10;72.70
21612;DHT22;47005;52.292;13.452;2022-07-06T00:31:01;19.10;72.80
21612;DHT22;47005;52.292;13.452;2022-07-06T00:33:27;19.10;73.30
21612;DHT22;47005;52.292;13.452;2022-07-06T00:35:53;19.10;73.60
21612;DHT22;47005;52.292;13.452;2022-07-06T00:38:18;19.10;73.50
21612;DHT22;47005;52.292;13.452;2022-07-06T00:40:44;19.10;74.00
21612;DHT22;47005;52.292;13.452;2022-07-06T00:43:09;19.10;74.00
21612;DHT22;47005;52.292;13.452;2022-07-06T00:45:35;19.00;74.30
21612;DHT22;47005;52.292;13.452;2022-07-06T00:48:01;19.00;74.60
21612;DHT22;47005;52.292;13.452;2022-07-06T00:50:26;19.00;74.50
21612;DHT22;47005;52.292;13.452;2022-07-06T00:52:59;19.00;74.80
21612;DHT22;47005;52.292;13.452;2022-07-06T00:55:31;19.00;75.40
21612;DHT22;47005;52.292;13.452;2022-07-06T00:57:57;18.90;75.40
21612;DHT22;47005;52.292;13.452;2022-07-06T01:00:26;18.90;75.40
21612;DHT22;47005;52.292;13.452;2022-07-06T01:02:53;18.90;75.40
21612;DHT22;47005;52.292;13.452;2022-07-06T01:05:19;18.80;75.80
21612;DHT22;47005;52.292;13.452;2022-07-06T01:07:47;18.80;76.20
21612;DHT22;47005;52.292;13.452;2022-07-06T01:10:15;18.80;76.50
21612;DHT22;47005;52.292;13.452;2022-07-06T01:12:41;18.80;76.50
21612;DHT22;47005;52.292;13.452;2022-07-06T01:15:14;18.80;76.70
21612;DHT22;47005;52.292;13.452;2022-07-06T01:17:40;18.80;77.10
21612;DHT22;47005;52.292;13.452;2022-07-06T01:20:17;18.80;78.20
21612;DHT22;47005;52.292;13.452;2022-07-06T01:22:45;18.70;77.30
21612;DHT22;47005;52.292;13.452;2022-07-06T01:25:11;18.70;77.20
21612;DHT22;47005;52.292;13.452;2022-07-06T01:27:38;18.70;77.20
21612;DHT22;47005;52.292;13.452;2022-07-06T01:30:06;18.70;77.20
21612;DHT22;47005;52.292;13.452;2022-07-06T01:32:32;18.70;77.70
21612;DHT22;47005;52.292;13.452;2022-07-06T01:34:58;18.60;77.80
21612;DHT22;47005;52.292;13.452;2022-07-06T01:37:24;18.70;78.10
21612;DHT22;47005;52.292;13.452;2022-07-06T01:39:50;18.70;78.40
21612;DHT22;47005;52.292;13.452;2022-07-06T01:42:15;18.50;78.30
21612;DHT22;47005;52.292;13.452;2022-07-06T01:44:43;18.50;78.30
21612;DHT22;47005;52.292;13.452;2022-07-06T01:47:08;18.50;78.70
21612;DHT22;47005;52.292;13.452;2022-07-06T01:49:34;18.50;78.70
21612;DHT22;47005;52.292;13.452;2022-07-06T01:52:00;18.50;79.20
21612;DHT22;47005;52.292;13.452;2022-07-06T01:54:25;18.50;80.20
21612;DHT22;47005;52.292;13.452;2022-07-06T01:56:51;18.40;79.30
21612;DHT22;47005;52.292;13.452;2022-07-06T01:59:16;18.40;79.40
21612;DHT22;47005;52.292;13.452;2022-07-06T02:01:42;18.40;79.40
21612;DHT22;47005;52.292;13.452;2022-07-06T02:04:07;18.40;79.80
21612;DHT22;47005;52.292;13.452;2022-07-06T02:06:33;18.30;80.20
21612;DHT22;47005;52.292;13.452;2022-07-06T02:08:58;18.40;79.90
21612;DHT22;47005;52.292;13.452;2022-07-06T02:11:24;18.30;80.20
21612;DHT22;47005;52.292;13.452;2022-07-06T02:13:50;18.30;80.80
21612;DHT22;47005;52.292;13.452;2022-07-06T02:16:15;18.30;81.10
21612;DHT22;47005;52.292;13.452;2022-07-06T02:18:41;18.30;81.10
21612;DHT22;47005;52.292;13.452;2022-07-06T02:21:07;18.30;81.60
21612;DHT22;47005;52.292;13.452;2022-07-06T02:23:32;18.20;81.40
21612;DHT22;47005;52.292;13.452;2022-07-06T02:25:58;18.20;80.90
21612;DHT22;47005;52.292;13.452;2022-07-06T02:28:23;18.20;80.80
21612;DHT22;47005;52.292;13.452;2022-07-06T02:30:49;18.20;80.70
21612;DHT22;47005;52.292;13.452;2022-07-06T02:33:15;18.20;80.70
21612;DHT22;47005;52.292;13.452;2022-07-06T02:35:40;18.20;80.60
21612;DHT22;47005;52.292;13.452;2022-07-06T02:38:09;18.20;81.40
21612;DHT22;47005;52.292;13.452;2022-07-06T02:40:35;18.10;80.40
21612;DHT22;47005;52.292;13.452;2022-07-06T02:43:00;18.20;80.40
21612;DHT22;47005;52.292;13.452;2022-07-06T02:45:26;18.20;81.00
21612;DHT22;47005;52.292;13.452;2022-07-06T02:47:52;18.20;81.00
21612;DHT22;47005;52.292;13.452;2022-07-06T02:50:18;18.20;81.20
21612;DHT22;47005;52.292;13.452;2022-07-06T02:52:44;18.20;80.80
21612;DHT22;47005;52.292;13.452;2022-07-06T02:55:09;18.20;81.10
21612;DHT22;47005;52.292;13.452;2022-07-06T02:57:35;18.20;81.20
21612;DHT22;47005;52.292;13.452;2022-07-06T03:00:01;18.20;81.00
21612;DHT22;47005;52.292;13.452;2022-07-06T03:02:26;18.20;80.90
21612;DHT22;47005;52.292;13.452;2022-07-06T03:04:52;18.20;81.00
21612;DHT22;47005;52.292;13.452;2022-07-06T03:07:18;18.20;81.00
21612;DHT22;47005;52.292;13.452;2022-07-06T03:09:43;18.10;81.20
21612;DHT22;47005;52.292;13.452;2022-07-06T03:12:09;18.20;81.40
21612;DHT22;47005;52.292;13.452;2022-07-06T03:14:34;18.10;81.40
21612;DHT22;47005;52.292;13.452;2022-07-06T03:17:00;18.10;81.00
21612;DHT22;47005;52.292;13.452;2022-07-06T03:19:26;18.10;81.50
21612;DHT22;47005;52.292;13.452;2022-07-06T03:21:51;18.10;81.50
21612;DHT22;47005;52.292;13.452;2022-07-06T03:24:17;18.10;81.40
21612;DHT22;47005;52.292;13.452;2022-07-06T03:26:42;18.10;82.00
21612;DHT22;47005;52.292;13.452;2022-07-06T03:29:08;18.10;81.50
21612;DHT22;47005;52.292;13.452;2022-07-06T03:31:34;18.10;81.90
21612;DHT22;47005;52.292;13.452;2022-07-06T03:34:00;18.10;81.50
21612;DHT22;47005;52.292;13.452;2022-07-06T03:36:26;18.10;82.00
21612;DHT22;47005;52.292;13.452;2022-07-06T03:38:51;18.10;82.30
21612;DHT22;47005;52.292;13.452;2022-07-06T03:41:17;18.00;82.80
21612;DHT22;47005;52.292;13.452;2022-07-06T03:43:43;18.00;82.70
21612;DHT22;47005;52.292;13.452;2022-07-06T03:46:08;18.00;83.80
21612;DHT22;47005;52.292;13.452;2022-07-06T03:48:34;17.90;84.00
21612;DHT22;47005;52.292;13.452;2022-07-06T03:50:59;18.00;84.10
21612;DHT22;47005;52.292;13.452;2022-07-06T03:53:26;18.00;84.20
21612;DHT22;47005;52.292;13.452;2022-07-06T03:55:52;17.90;85.30
21612;DHT22;47005;52.292;13.452;2022-07-06T03:58:36;17.90;84.60
21612;DHT22;47005;52.292;13.452;2022-07-06T04:01:01;17.90;85.50
21612;DHT22;47005;52.292;13.452;2022-07-06T04:03:27;17.90;85.80
21612;DHT22;47005;52.292;13.452;2022-07-06T04:05:53;17.90;86.60
21612;DHT22;47005;52.292;13.452;2022-07-06T04:08:18;17.80;87.10
21612;DHT22;47005;52.292;13.452;2022-07-06T04:10:45;17.80;87.60
21612;DHT22;47005;52.292;13.452;2022-07-06T04:13:11;17.80;88.20
21612;DHT22;47005;52.292;13.452;2022-07-06T04:15:36;17.70;88.70
21612;DHT22;47005;52.292;13.452;2022-07-06T04:18:02;17.70;88.60
21612;DHT22;47005;52.292;13.452;2022-07-06T04:20:27;17.70;88.70
21612;DHT22;47005;52.292;13.452;2022-07-06T04:22:53;17.70;88.90
21612;DHT22;47005;52.292;13.452;2022-07-06T04:25:19;17.60;88.70
21612;DHT22;47005;52.292;13.452;2022-07-06T04:27:45;17.60;88.70
21612;DHT22;47005;52.292;13.452;2022-07-06T04:30:11;17.60;88.60
21612;DHT22;47005;52.292;13.452;2022-07-06T04:32:36;17.60;88.50
21612;DHT22;47005;52.292;13.452;2022-07-06T04:35:04;17.60;88.80
21612;DHT22;47005;52.292;13.452;2022-07-06T04:37:30;17.60;89.70
21612;DHT22;47005;52.292;13.452;2022-07-06T04:39:56;17.60;89.60
21612;DHT22;47005;52.292;13.452;2022-07-06T04:42:21;17.60;89.30
21612;DHT22;47005;52.292;13.452;2022-07-06T04:44:47;17.50;89.10
21612;DHT22;47005;52.292;13.452;2022-07-06T04:47:13;17.50;89.10
21612;DHT22;47005;52.292;13.452;2022-07-06T04:49:39;17.60;89.60
21612;DHT22;47005;52.292;13.452;2022-07-06T04:52:05;17.50;89.40
21612;DHT22;47005;52.292;13.452;2022-07-06T04:54:30;17.50;89.50
21612;DHT22;47005;52.292;13.452;2022-07-06T04:56:56;17.60;89.60
21612;DHT22;47005;52.292;13.452;2022-07-06T04:59:22;17.60;90.00
21612;DHT22;47005;52.292;13.452;2022-07-06T05:01:48;17.60;89.50
21612;DHT22;47005;52.292;13.452;2022-07-06T05:04:13;17.60;89.30
21612;DHT22;47005;52.292;13.452;2022-07-06T05:06:39;17.60;89.30
21612;DHT22;47005;52.292;13.452;2022-07-06T05:09:05;17.70;89.10
21612;DHT22;47005;52.292;13.452;2022-07-06T05:11:31;17.70;89.00
21612;DHT22;47005;52.292;13.452;2022-07-06T05:13:57;17.70;88.80
21612;DHT22;47005;52.292;13.452;2022-07-06T05:16:23;17.70;88.80
21612;DHT22;47005;52.292;13.452;2022-07-06T05:18:49;17.70;88.80
21612;DHT22;47005;52.292;13.452;2022-07-06T05:21:14;17.70;89.00
21612;DHT22;47005;52.292;13.452;2022-07-06T05:23:40;17.70;88.70
21612;DHT22;47005;52.292;13.452;2022-07-06T05:26:06;17.80;88.60
21612;DHT22;47005;52.292;13.452;2022-07-06T05:28:32;17.70;88.60
21612;DHT22;47005;52.292;13.452;2022-07-06T05:30:57;17.80;88.80
21612;DHT22;47005;52.292;13.452;2022-07-06T05:33:23;17.80;89.40
21612;DHT22;47005;52.292;13.452;2022-07-06T05:35:49;17.80;89.50
21612;DHT22;47005;52.292;13.452;2022-07-06T05:38:15;17.80;89.20
21612;DHT22;47005;52.292;13.452;2022-07-06T05:40:41;17.90;89.10
21612;DHT22;47005;52.292;13.452;2022-07-06T05:43:06;17.90;89.30
21612;DHT22;47005;52.292;13.452;2022-07-06T05:45:32;17.90;88.70
21612;DHT22;47005;52.292;13.452;2022-07-06T05:47:58;17.90;88.00
21612;DHT22;47005;52.292;13.452;2022-07-06T05:50:42;17.90;87.20
21612;DHT22;47005;52.292;13.452;2022-07-06T05:53:07;17.90;87.20
21612;DHT22;47005;52.292;13.452;2022-07-06T05:55:33;17.90;86.80
21612;DHT22;47005;52.292;13.452;2022-07-06T05:57:59;17.90;86.50
21612;DHT22;47005;52.292;13.452;2022-07-06T06:00:26;17.90;85.40
21612;DHT22;47005;52.292;13.452;2022-07-06T06:02:52;17.90;85.60
21612;DHT22;47005;52.292;13.452;2022-07-06T06:05:19;17.90;85.80
21612;DHT22;47005;52.292;13.452;2022-07-06T06:07:45;17.90;85.60
21612;DHT22;47005;52.292;13.452;2022-07-06T06:10:14;17.90;85.20
21612;DHT22;47005;52.292;13.452;2022-07-06T06:12:41;18.00;85.50
21612;DHT22;47005;52.292;13.452;2022-07-06T06:15:07;17.90;86.00
21612;DHT22;47005;52.292;13.452;2022-07-06T06:17:34;18.00;86.40
21612;DHT22;47005;52.292;13.452;2022-07-06T06:20:00;18.00;85.30
21612;DHT22;47005;52.292;13.452;2022-07-06T06:22:26;18.00;85.10
21612;DHT22;47005;52.292;13.452;2022-07-06T06:24:52;18.00;84.30
21612;DHT22;47005;52.292;13.452;2022-07-06T06:27:17;18.00;84.40
21612;DHT22;47005;52.292;13.452;2022-07-06T06:29:43;18.00;84.60
21612;DHT22;47005;52.292;13.452;2022-07-06T06:32:11;18.10;84.90
21612;DHT22;47005;52.292;13.452;2022-07-06T06:34:37;18.00;84.60
21612;DHT22;47005;52.292;13.452;2022-07-06T06:37:03;18.10;83.10
21612;DHT22;47005;52.292;13.452;2022-07-06T06:39:28;18.00;81.60
21612;DHT22;47005;52.292;13.452;2022-07-06T06:41:54;18.00;82.20
21612;DHT22;47005;52.292;13.452;2022-07-06T06:44:20;18.00;82.50
21612;DHT22;47005;52.292;13.452;2022-07-06T06:46:49;18.10;82.80
21612;DHT22;47005;52.292;13.452;2022-07-06T06:49:14;18.10;82.70
21612;DHT22;47005;52.292;13.452;2022-07-06T06:51:40;18.10;82.20
21612;DHT22;47005;52.292;13.452;2022-07-06T06:54:05;18.10;81.60
21612;DHT22;47005;52.292;13.452;2022-07-06T06:56:31;18.10;81.50
21612;DHT22;47005;52.292;13.452;2022-07-06T06:58:57;18.20;81.70
21612;DHT22;47005;52.292;13.452;2022-07-06T07:01:22;18.20;81.40
21612;DHT22;47005;52.292;13.452;2022-07-06T07:03:49;18.20;81.90
21612;DHT22;47005;52.292;13.452;2022-07-06T07:06:15;18.20;81.30
21612;DHT22;47005;52.292;13.452;2022-07-06T07:08:41;18.30;81.20
21612;DHT22;47005;52.292;13.452;2022-07-06T07:11:06;18.30;80.50
21612;DHT22;47005;52.292;13.452;2022-07-06T07:13:32;18.30;80.60
21612;DHT22;47005;52.292;13.452;2022-07-06T07:15:58;18.30;79.60
21612;DHT22;47005;52.292;13.452;2022-07-06T07:18:23;18.30;80.00
21612;DHT22;47005;52.292;13.452;2022-07-06T07:20:49;18.30;78.80
21612;DHT22;47005;52.292;13.452;2022-07-06T07:23:14;18.30;79.30
21612;DHT22;47005;52.292;13.452;2022-07-06T07:25:40;18.30;78.30
21612;DHT22;47005;52.292;13.452;2022-07-06T07:28:06;18.40;77.50
21612;DHT22;47005;52.292;13.452;2022-07-06T07:30:32;18.40;78.30
21612;DHT22;47005;52.292;13.452;2022-07-06T07:32:57;18.40;78.80
21612;DHT22;47005;52.292;13.452;2022-07-06T07:35:25;18.50;79.40
21612;DHT22;47005;52.292;13.452;2022-07-06T07:37:51;18.50;79.00
21612;DHT22;47005;52.292;13.452;2022-07-06T07:40:17;18.50;79.10
21612;DHT22;47005;52.292;13.452;2022-07-06T07:42:42;18.60;79.00
21612;DHT22;47005;52.292;13.452;2022-07-06T07:45:09;18.60;78.20
21612;DHT22;47005;52.292;13.452;2022-07-06T07:47:35;18.60;78.60
21612;DHT22;47005;52.292;13.452;2022-07-06T07:50:01;18.60;79.00
21612;DHT22;47005;52.292;13.452;2022-07-06T07:52:26;18.70;79.70
21612;DHT22;47005;52.292;13.452;2022-07-06T07:54:52;18.70;78.90
21612;DHT22;47005;52.292;13.452;2022-07-06T07:57:17;18.70;77.90
21612;DHT22;47005;52.292;13.452;2022-07-06T07:59:43;18.70;78.30
21612;DHT22;47005;52.292;13.452;2022-07-06T08:02:09;18.90;77.90
21612;DHT22;47005;52.292;13.452;2022-07-06T08:04:34;18.80;78.60
21612;DHT22;47005;52.292;13.452;2022-07-06T08:07:00;18.80;78.00
21612;DHT22;47005;52.292;13.452;2022-07-06T08:09:26;18.90;78.10
21612;DHT22;47005;52.292;13.452;2022-07-06T08:11:51;18.90;77.80
21612;DHT22;47005;52.292;13.452;2022-07-06T08:14:17;18.90;78.40
21612;DHT22;47005;52.292;13.452;2022-07-06T08:16:43;18.90;77.90
21612;DHT22;47005;52.292;13.452;2022-07-06T08:19:09;18.90;77.20
21612;DHT22;47005;52.292;13.452;2022-07-06T08:21:35;18.90;76.60
21612;DHT22;47005;52.292;13.452;2022-07-06T08:24:01;18.90;76.20
21612;DHT22;47005;52.292;13.452;2022-07-06T08:26:27;19.00;75.20
21612;DHT22;47005;52.292;13.452;2022-07-06T08:28:53;18.90;73.50
21612;DHT22;47005;52.292;13.452;2022-07-06T08:31:18;18.80;74.30
21612;DHT22;47005;52.292;13.452;2022-07-06T08:33:44;18.90;74.70
21612;DHT22;47005;52.292;13.452;2022-07-06T08:36:10;18.80;74.00
21612;DHT22;47005;52.292;13.452;2022-07-06T08:38:36;18.90;73.60
21612;DHT22;47005;52.292;13.452;2022-07-06T08:41:02;18.90;74.50
21612;DHT22;47005;52.292;13.452;2022-07-06T08:43:27;19.00;74.60
21612;DHT22;47005;52.292;13.452;2022-07-06T08:45:54;19.00;74.20
21612;DHT22;47005;52.292;13.452;2022-07-06T08:48:23;19.00;73.60
21612;DHT22;47005;52.292;13.452;2022-07-06T08:50:49;19.00;74.20
21612;DHT22;47005;52.292;13.452;2022-07-06T08:53:17;19.00;74.30
21612;DHT22;47005;52.292;13.452;2022-07-06T08:55:43;19.00;73.40
21612;DHT22;47005;52.292;13.452;2022-07-06T08:58:09;19.00;73.90
21612;DHT22;47005;52.292;13.452;2022-07-06T09:00:35;19.00;75.40
21612;DHT22;47005;52.292;13.452;2022-07-06T09:03:01;19.10;74.90
21612;DHT22;47005;52.292;13.452;2022-07-06T09:05:28;19.00;73.80
21612;DHT22;47005;52.292;13.452;2022-07-06T09:07:54;19.10;74.40
21612;DHT22;47005;52.292;13.452;2022-07-06T09:10:21;19.00;74.40
21612;DHT22;47005;52.292;13.452;2022-07-06T09:12:48;19.00;74.00
21612;DHT22;47005;52.292;13.452;2022-07-06T09:15:14;19.00;72.00
21612;DHT22;47005;52.292;13.452;2022-07-06T09:17:41;19.00;71.70
21612;DHT22;47005;52.292;13.452;2022-07-06T09:20:08;19.00;73.10
21612;DHT22;47005;52.292;13.452;2022-07-06T09:22:34;19.00;72.20
21612;DHT22;47005;52.292;13.452;2022-07-06T09:25:09;19.00;72.20
21612;DHT22;47005;52.292;13.452;2022-07-06T09:27:40;19.10;72.40
21612;DHT22;47005;52.292;13.452;2022-07-06T09:30:08;19.10;72.60
21612;DHT22;47005;52.292;13.452;2022-07-06T09:32:41;19.10;71.70
21612;DHT22;47005;52.292;13.452;2022-07-06T09:35:07;19.00;69.80
21612;DHT22;47005;52.292;13.452;2022-07-06T09:37:33;19.00;69.00
21612;DHT22;47005;52.292;13.452;2022-07-06T09:39:59;19.00;70.70
21612;DHT22;47005;52.292;13.452;2022-07-06T09:42:25;19.10;71.10
21612;DHT22;47005;52.292;13.452;2022-07-06T09:44:52;19.00;69.50
21612;DHT22;47005;52.292;13.452;2022-07-06T09:47:18;19.00;68.90
21612;DHT22;47005;52.292;13.452;2022-07-06T09:49:45;19.00;68.50
21612;DHT22;47005;52.292;13.452;2022-07-06T09:52:13;19.00;68.90
21612;DHT22;47005;52.292;13.452;2022-07-06T09:54:39;19.00;69.40
21612;DHT22;47005;52.292;13.452;2022-07-06T09:57:06;19.00;67.70
21612;DHT22;47005;52.292;13.452;2022-07-06T09:59:34;19.00;67.60
21612;DHT22;47005;52.292;13.452;2022-07-06T10:02:02;19.00;66.90
21612;DHT22;47005;52.292;13.452;2022-07-06T10:04:29;19.10;68.50
21612;DHT22;47005;52.292;13.452;2022-07-06T10:06:56;19.10;68.60
21612;DHT22;47005;52.292;13.452;2022-07-06T10:09:24;19.10;67.80
21612;DHT22;47005;52.292;13.452;2022-07-06T10:11:54;19.10;68.10
21612;DHT22;47005;52.292;13.452;2022-07-06T10:14:29;19.20;68.70
21612;DHT22;47005;52.292;13.452;2022-07-06T10:16:59;19.20;69.20
21612;DHT22;47005;52.292;13.452;2022-07-06T10:19:26;19.20;69.50
21612;DHT22;47005;52.292;13.452;2022-07-06T10:21:52;19.20;68.10
21612;DHT22;47005;52.292;13.452;2022-07-06T10:24:19;19.20;68.60
21612;DHT22;47005;52.292;13.452;2022-07-06T10:26:46;19.20;68.90
21612;DHT22;47005;52.292;13.452;2022-07-06T10:29:12;19.20;67.60
21612;DHT22;47005;52.292;13.452;2022-07-06T10:31:40;19.20;66.60
21612;DHT22;47005;52.292;13.452;2022-07-06T10:34:10;19.20;67.70
21612;DHT22;47005;52.292;13.452;2022-07-06T10:36:38;19.30;68.30
21612;DHT22;47005;52.292;13.452;2022-07-06T10:39:04;19.30;67.00
21612;DHT22;47005;52.292;13.452;2022-07-06T10:41:49;19.30;68.40
21612;DHT22;47005;52.292;13.452;2022-07-06T10:44:23;19.40;68.20
21612;DHT22;47005;52.292;13.452;2022-07-06T10:46:57;19.40;68.40
21612;DHT22;47005;52.292;13.452;2022-07-06T10:49:24;19.40;68.80
21612;DHT22;47005;52.292;13.452;2022-07-06T10:51:50;19.40;67.70
21612;DHT22;47005;52.292;13.452;2022-07-06T10:54:18;19.50;68.20
21612;DHT22;47005;52.292;13.452;2022-07-06T11:01:39;19.50;66.00
21612;DHT22;47005;52.292;13.452;2022-07-06T11:04:07;19.50;65.90
21612;DHT22;47005;52.292;13.452;2022-07-06T11:06:40;19.50;65.90
21612;DHT22;47005;52.292;13.452;2022-07-06T11:09:07;19.50;65.80
21612;DHT22;47005;52.292;13.452;2022-07-06T11:19:19;19.60;65.00
21612;DHT22;47005;52.292;13.452;2022-07-06T11:21:47;19.60;65.70
21612;DHT22;47005;52.292;13.452;2022-07-06T11:24:19;19.60;66.00
21612;DHT22;47005;52.292;13.452;2022-07-06T11:26:47;19.70;66.10
21612;DHT22;47005;52.292;13.452;2022-07-06T11:29:14;19.70;66.40
21612;DHT22;47005;52.292;13.452;2022-07-06T11:31:42;19.70;66.30
21612;DHT22;47005;52.292;13.452;2022-07-06T11:34:09;19.70;66.50
21612;DHT22;47005;52.292;13.452;2022-07-06T11:36:35;19.80;66.20
21612;DHT22;47005;52.292;13.452;2022-07-06T11:39:02;19.80;66.60
21612;DHT22;47005;52.292;13.452;2022-07-06T11:41:28;19.80;65.80
21612;DHT22;47005;52.292;13.452;2022-07-06T11:43:53;19.80;65.50
21612;DHT22;47005;52.292;13.452;2022-07-06T11:46:33;19.90;66.70
21612;DHT22;47005;52.292;13.452;2022-07-06T11:51:28;19.90;67.80
21612;DHT22;47005;52.292;13.452;2022-07-06T11:54:00;19.90;67.10
21612;DHT22;47005;52.292;13.452;2022-07-06T11:56:27;20.00;65.80
21612;DHT22;47005;52.292;13.452;2022-07-06T11:58:54;20.00;65.70
21612;DHT22;47005;52.292;13.452;2022-07-06T12:01:22;20.00;65.00
21612;DHT22;47005;52.292;13.452;2022-07-06T12:03:49;19.90;65.80
21612;DHT22;47005;52.292;13.452;2022-07-06T12:06:22;20.00;66.90
21612;DHT22;47005;52.292;13.452;2022-07-06T12:08:52;20.00;67.10
21612;DHT22;47005;52.292;13.452;2022-07-06T12:11:21;20.00;65.90
21612;DHT22;47005;52.292;13.452;2022-07-06T12:13:47;20.00;65.10
21612;DHT22;47005;52.292;13.452;2022-07-06T12:16:14;20.00;65.80
21612;DHT22;47005;52.292;13.452;2022-07-06T12:18:44;20.10;66.10
21612;DHT22;47005;52.292;13.452;2022-07-06T12:21:14;20.10;64.50
21612;DHT22;47005;52.292;13.452;2022-07-06T12:23:46;20.10;63.90
21612;DHT22;47005;52.292;13.452;2022-07-06T12:26:13;20.10;62.60
21612;DHT22;47005;52.292;13.452;2022-07-06T12:28:40;20.10;63.80
21612;DHT22;47005;52.292;13.452;2022-07-06T12:31:05;20.20;64.70
21612;DHT22;47005;52.292;13.452;2022-07-06T12:33:31;20.20;65.20
21612;DHT22;47005;52.292;13.452;2022-07-06T12:36:07;20.20;66.00
21612;DHT22;47005;52.292;13.452;2022-07-06T12:38:33;20.20;66.20
21612;DHT22;47005;52.292;13.452;2022-07-06T12:40:59;20.20;66.00
21612;DHT22;47005;52.292;13.452;2022-07-06T12:43:41;20.30;65.70
21612;DHT22;47005;52.292;13.452;2022-07-06T12:46:26;20.30;65.70
21612;DHT22;47005;52.292;13.452;2022-07-06T12:48:53;20.30;64.70
21612;DHT22;47005;52.292;13.452;2022-07-06T12:51:19;20.30;64.70
21612;DHT22;47005;52.292;13.452;2022-07-06T12:53:45;20.40;64.70
21612;DHT22;47005;52.292;13.452;2022-07-06T12:56:11;20.30;65.10
21612;DHT22;47005;52.292;13.452;2022-07-06T12:58:37;20.30;65.30
21612;DHT22;47005;52.292;13.452;2022-07-06T13:01:03;20.30;66.00
21612;DHT22;47005;52.292;13.452;2022-07-06T13:03:38;20.40;66.00
21612;DHT22;47005;52.292;13.452;2022-07-06T13:06:05;20.40;66.10
21612;DHT22;47005;52.292;13.452;2022-07-06T13:08:31;20.40;66.70
21612;DHT22;47005;52.292;13.452;2022-07-06T13:10:57;20.40;67.20
21612;DHT22;47005;52.292;13.452;2022-07-06T13:13:23;20.40;66.60
21612;DHT22;47005;52.292;13.452;2022-07-06T13:15:48;20.40;67.00
21612;DHT22;47005;52.292;13.452;2022-07-06T13:18:15;20.40;66.20
21612;DHT22;47005;52.292;13.452;2022-07-06T13:20:44;20.40;66.30
21612;DHT22;47005;52.292;13.452;2022-07-06T13:23:09;20.40;66.10
21612;DHT22;47005;52.292;13.452;2022-07-06T13:25:35;20.50;66.50
21612;DHT22;47005;52.292;13.452;2022-07-06T13:28:00;20.50;66.60
21612;DHT22;47005;52.292;13.452;2022-07-06T13:30:26;20.60;66.70
21612;DHT22;47005;52.292;13.452;2022-07-06T13:32:51;20.60;66.50
21612;DHT22;47005;52.292;13.452;2022-07-06T13:35:17;20.60;65.50
21612;DHT22;47005;52.292;13.452;2022-07-06T13:37:43;20.60;64.90
21612;DHT22;47005;52.292;13.452;2022-07-06T13:40:12;20.70;65.50
21612;DHT22;47005;52.292;13.452;2022-07-06T13:42:38;20.70;66.50
21612;DHT22;47005;52.292;13.452;2022-07-06T13:45:04;20.70;66.40
21612;DHT22;47005;52.292;13.452;2022-07-06T13:47:29;20.70;66.30
21612;DHT22;47005;52.292;13.452;2022-07-06T13:49:55;20.70;65.90
21612;DHT22;47005;52.292;13.452;2022-07-06T13:52:21;20.70;65.70
21612;DHT22;47005;52.292;13.452;2022-07-06T13:54:46;20.70;66.60
21612;DHT22;47005;52.292;13.452;2022-07-06T13:57:12;20.70;66.90
21612;DHT22;47005;52.292;13.452;2022-07-06T13:59:38;20.80;67.00
21612;DHT22;47005;52.292;13.452;2022-07-06T14:02:03;20.80;66.70
21612;DHT22;47005;52.292;13.452;2022-07-06T14:04:29;20.80;66.80
21612;DHT22;47005;52.292;13.452;2022-07-06T14:06:55;20.70;67.50
21612;DHT22;47005;52.292;13.452;2022-07-06T14:09:20;20.70;66.00
21612;DHT22;47005;52.292;13.452;2022-07-06T14:11:46;20.70;65.10
21612;DHT22;47005;52.292;13.452;2022-07-06T14:14:12;20.80;65.00
21612;DHT22;47005;52.292;13.452;2022-07-06T14:16:37;20.70;64.60
21612;DHT22;47005;52.292;13.452;2022-07-06T14:19:05;20.70;63.40
21612;DHT22;47005;52.292;13.452;2022-07-06T14:21:31;20.70;62.70
21612;DHT22;47005;52.292;13.452;2022-07-06T14:23:56;20.60;63.40
21612;DHT22;47005;52.292;13.452;2022-07-06T14:26:22;20.60;63.30
21612;DHT22;47005;52.292;13.452;2022-07-06T14:28:48;20.60;63.40
21612;DHT22;47005;52.292;13.452;2022-07-06T14:31:13;20.60;62.40
21612;DHT22;47005;52.292;13.452;2022-07-06T14:33:39;20.60;62.40
21612;DHT22;47005;52.292;13.452;2022-07-06T14:36:05;20.50;62.40
21612;DHT22;47005;52.292;13.452;2022-07-06T14:38:30;20.50;63.70
21612;DHT22;47005;52.292;13.452;2022-07-06T14:40:56;20.50;62.80
21612;DHT22;47005;52.292;13.452;2022-07-06T14:43:22;20.50;63.70
21612;DHT22;47005;52.292;13.452;2022-07-06T14:45:47;20.50;64.20
21612;DHT22;47005;52.292;13.452;2022-07-06T14:48:14;20.50;64.30
21612;DHT22;47005;52.292;13.452;2022-07-06T14:50:39;20.50;64.50
21612;DHT22;47005;52.292;13.452;2022-07-06T14:53:05;20.50;64.10
21612;DHT22;47005;52.292;13.452;2022-07-06T14:55:31;20.50;63.70
21612;DHT22;47005;52.292;13.452;2022-07-06T14:57:56;20.40;63.60
21612;DHT22;47005;52.292;13.452;2022-07-06T15:00:22;20.40;63.90
21612;DHT22;47005;52.292;13.452;2022-07-06T15:02:47;20.40;63.90
21612;DHT22;47005;52.292;13.452;2022-07-06T15:05:14;20.40;64.70
21612;DHT22;47005;52.292;13.452;2022-07-06T15:07:40;20.40;64.70
21612;DHT22;47005;52.292;13.452;2022-07-06T15:10:06;20.30;64.90
21612;DHT22;47005;52.292;13.452;2022-07-06T15:12:32;20.30;64.90
21612;DHT22;47005;52.292;13.452;2022-07-06T15:14:58;20.30;65.20
21612;DHT22;47005;52.292;13.452;2022-07-06T15:17:23;20.30;65.10
21612;DHT22;47005;52.292;13.452;2022-07-06T15:19:49;20.30;65.60
21612;DHT22;47005;52.292;13.452;2022-07-06T15:22:15;20.30;65.00
21612;DHT22;47005;52.292;13.452;2022-07-06T15:24:40;20.30;64.80
21612;DHT22;47005;52.292;13.452;2022-07-06T15:27:06;20.20;64.60